Terminal Aerodrome Forecast
Issued by NWS Spokane, WA

Home | Current Version | Previous Version | Text Only | Print | Product List | Glossary On
Versions: 1 2 3 4 5 6 7 8 9 10 11 12 13
000
FTUS46 KOTX 282320
TAFLWS
TAF
KLWS 282320Z 2900/2924 04006KT P6SM SCT060 SCT200
     FM290300 VRB04KT P6SM SCT150 BKN200
     FM290900 13002KT P6SM SCT080 BKN120 BKN200
     FM291800 31009KT P6SM SCT070 BKN090=

USA.gov is the U.S. government's official web portal to all federal, state and local government web resources and services.